CCA831 ZBAA-ROAH
Flight info
| Callsign | CCA831 |
|---|---|
| Flight time | 2h 41m |
| Altitude | 35100 |
| Route | MUGLO2G MUGLO W34 ANRAT A326 DONVO G597 AGAVO/N0447F370 Y644 MONSI/N0455F360 Y711 KIDOS Z81 CJU A586 TOSAN Y572 RUGMA Y579 GUPTI |
| Aircraft | B738/M-SDE2E3FGHIRWXY/LB1 |
Departure
| Time | 2026-04-21 12:55 |
|---|---|
| Airport | Beijing Capital International Airport (ZBAA) |
Arrival
| Time | 2026-04-21 15:36 |
|---|---|
| Airport | Naha International Airport (ROAH) |
| Time | Latitude | Longitude | Altitude | Speed | Heading |
|---|---|---|---|---|---|
| 2026-04-21 12:10 | 40.07220 | 116.58996 | 123 ft | 0 kts | 84° |
| 2026-04-21 12:43 | 40.07219 | 116.58986 | 122 ft | 2 kts | 83° |
| 2026-04-21 12:43 | 40.07218 | 116.58966 | 122 ft | 2 kts | 83° |
| 2026-04-21 12:43 | 40.07216 | 116.58949 | 122 ft | 2 kts | 82° |
| 2026-04-21 12:44 | 40.07208 | 116.58935 | 122 ft | 2 kts | 18° |
| 2026-04-21 12:44 | 40.07196 | 116.58935 | 122 ft | 2 kts | 346° |
| 2026-04-21 12:44 | 40.07183 | 116.58938 | 122 ft | 0 kts | 359° |
| 2026-04-21 12:44 | 40.07177 | 116.58938 | 122 ft | 0 kts | 354° |
| 2026-04-21 12:47 | 40.07187 | 116.58936 | 122 ft | 6 kts | 354° |
| 2026-04-21 12:48 | 40.07270 | 116.58925 | 122 ft | 13 kts | 353° |
| 2026-04-21 12:48 | 40.07341 | 116.58930 | 122 ft | 9 kts | 46° |
| 2026-04-21 12:48 | 40.07355 | 116.59010 | 122 ft | 8 kts | 82° |
| 2026-04-21 12:48 | 40.07363 | 116.59081 | 122 ft | 7 kts | 82° |
| 2026-04-21 12:49 | 40.07368 | 116.59142 | 122 ft | 6 kts | 85° |
| 2026-04-21 12:49 | 40.07371 | 116.59202 | 122 ft | 7 kts | 86° |
| 2026-04-21 12:49 | 40.07379 | 116.59294 | 122 ft | 13 kts | 83° |
| 2026-04-21 12:49 | 40.07400 | 116.59410 | 122 ft | 12 kts | 43° |
| 2026-04-21 12:50 | 40.07476 | 116.59417 | 122 ft | 11 kts | 352° |
| 2026-04-21 12:50 | 40.07566 | 116.59401 | 122 ft | 14 kts | 353° |
| 2026-04-21 12:50 | 40.07677 | 116.59384 | 122 ft | 17 kts | 353° |
| 2026-04-21 12:50 | 40.07810 | 116.59364 | 122 ft | 19 kts | 353° |
| 2026-04-21 12:51 | 40.07945 | 116.59342 | 122 ft | 18 kts | 353° |
| 2026-04-21 12:51 | 40.08071 | 116.59319 | 122 ft | 17 kts | 352° |
| 2026-04-21 12:51 | 40.08190 | 116.59302 | 122 ft | 16 kts | 354° |
| 2026-04-21 12:51 | 40.08306 | 116.59287 | 123 ft | 16 kts | 354° |
| 2026-04-21 12:52 | 40.08419 | 116.59270 | 123 ft | 15 kts | 353° |
| 2026-04-21 12:52 | 40.08522 | 116.59253 | 123 ft | 13 kts | 353° |
| 2026-04-21 12:52 | 40.08579 | 116.59296 | 123 ft | 9 kts | 78° |
| 2026-04-21 12:52 | 40.08584 | 116.59334 | 123 ft | 0 kts | 82° |
| 2026-04-21 12:53 | 40.08586 | 116.59358 | 123 ft | 6 kts | 83° |
| 2026-04-21 12:53 | 40.08595 | 116.59463 | 122 ft | 15 kts | 84° |
| 2026-04-21 12:54 | 40.08593 | 116.59528 | 123 ft | 3 kts | 140° |
| 2026-04-21 12:54 | 40.08567 | 116.59539 | 123 ft | 4 kts | 171° |
| 2026-04-21 12:54 | 40.08443 | 116.59557 | 123 ft | 46 kts | 174° |
| 2026-04-21 12:54 | 40.07897 | 116.59644 | 123 ft | 110 kts | 174° |
| 2026-04-21 12:55 | 40.07056 | 116.59774 | 123 ft | 156 kts | 173° |
| 2026-04-21 12:55 | 40.06123 | 116.59940 | 179 ft | 177 kts | 174° |
| 2026-04-21 12:55 | 40.04960 | 116.60149 | 923 ft | 170 kts | 174° |
| 2026-04-21 12:55 | 40.03760 | 116.60400 | 1477 ft | 180 kts | 173° |
| 2026-04-21 12:56 | 40.02549 | 116.60649 | 2188 ft | 174 kts | 176° |
| 2026-04-21 12:56 | 40.01310 | 116.60842 | 2572 ft | 187 kts | 178° |
| 2026-04-21 12:56 | 40.00019 | 116.61008 | 3146 ft | 188 kts | 179° |
| 2026-04-21 12:56 | 39.98696 | 116.61180 | 3527 ft | 200 kts | 178° |
| 2026-04-21 12:57 | 39.97264 | 116.61385 | 3856 ft | 216 kts | 177° |
| 2026-04-21 12:57 | 39.95696 | 116.61619 | 4144 ft | 237 kts | 176° |
| 2026-04-21 12:57 | 39.93992 | 116.61876 | 4585 ft | 251 kts | 176° |
| 2026-04-21 12:57 | 39.92218 | 116.62140 | 5025 ft | 266 kts | 176° |
| 2026-04-21 12:58 | 39.90339 | 116.62420 | 5598 ft | 275 kts | 176° |
| 2026-04-21 12:58 | 39.88428 | 116.62705 | 6253 ft | 279 kts | 175° |
| 2026-04-21 12:58 | 39.86468 | 116.62999 | 6839 ft | 286 kts | 175° |
| 2026-04-21 12:58 | 39.84509 | 116.63292 | 7499 ft | 289 kts | 175° |
| 2026-04-21 12:59 | 39.82482 | 116.63596 | 8138 ft | 295 kts | 175° |
| 2026-04-21 12:59 | 39.80421 | 116.63908 | 8755 ft | 300 kts | 175° |
| 2026-04-21 12:59 | 39.78365 | 116.64221 | 9375 ft | 304 kts | 175° |
| 2026-04-21 12:59 | 39.76239 | 116.64547 | 9964 ft | 308 kts | 175° |
| 2026-04-21 13:00 | 39.74102 | 116.64873 | 10459 ft | 317 kts | 175° |
| 2026-04-21 13:00 | 39.71836 | 116.65217 | 10710 ft | 335 kts | 175° |
| 2026-04-21 13:00 | 39.69473 | 116.65574 | 11051 ft | 348 kts | 174° |
| 2026-04-21 13:00 | 39.67021 | 116.65945 | 11307 ft | 365 kts | 174° |
| 2026-04-21 13:01 | 39.64468 | 116.66370 | 11623 ft | 379 kts | 172° |
| 2026-04-21 13:01 | 39.61794 | 116.66981 | 11865 ft | 395 kts | 169° |
| 2026-04-21 13:01 | 39.59085 | 116.67709 | 12296 ft | 405 kts | 168° |
| 2026-04-21 13:01 | 39.56306 | 116.68494 | 12872 ft | 410 kts | 167° |
| 2026-04-21 13:02 | 39.53598 | 116.69663 | 13621 ft | 411 kts | 156° |
| 2026-04-21 13:02 | 39.51008 | 116.71265 | 14188 ft | 417 kts | 152° |
| 2026-04-21 13:02 | 39.45905 | 116.74930 | 15576 ft | 422 kts | 150° |
| 2026-04-21 13:03 | 39.43366 | 116.76817 | 16134 ft | 428 kts | 150° |
| 2026-04-21 13:03 | 39.40803 | 116.78709 | 16857 ft | 428 kts | 151° |
| 2026-04-21 13:03 | 39.38192 | 116.80614 | 17436 ft | 433 kts | 152° |
| 2026-04-21 13:03 | 39.35540 | 116.82519 | 18046 ft | 436 kts | 152° |
| 2026-04-21 13:04 | 39.32837 | 116.84332 | 18604 ft | 439 kts | 156° |
| 2026-04-21 13:04 | 39.30030 | 116.85934 | 19172 ft | 442 kts | 160° |
| 2026-04-21 13:04 | 39.27187 | 116.87380 | 19773 ft | 443 kts | 162° |
| 2026-04-21 13:04 | 39.24307 | 116.88815 | 20281 ft | 447 kts | 160° |
| 2026-04-21 13:05 | 39.21490 | 116.90599 | 20772 ft | 454 kts | 152° |
| 2026-04-21 13:05 | 39.18903 | 116.92933 | 21246 ft | 460 kts | 143° |
| 2026-04-21 13:05 | 39.16612 | 116.95786 | 21720 ft | 466 kts | 134° |
| 2026-04-21 13:05 | 39.14643 | 116.99148 | 22156 ft | 472 kts | 124° |
| 2026-04-21 13:06 | 39.13098 | 117.02853 | 22522 ft | 479 kts | 114° |
| 2026-04-21 13:06 | 39.11990 | 117.06928 | 22971 ft | 483 kts | 105° |
| 2026-04-21 13:06 | 39.11354 | 117.11184 | 23317 ft | 487 kts | 97° |
| 2026-04-21 13:06 | 39.11059 | 117.15521 | 23654 ft | 494 kts | 92° |
| 2026-04-21 13:07 | 39.10936 | 117.19943 | 24136 ft | 495 kts | 91° |
| 2026-04-21 13:07 | 39.10875 | 117.24368 | 24430 ft | 502 kts | 90° |
| 2026-04-21 13:07 | 39.10815 | 117.28851 | 24898 ft | 504 kts | 91° |
| 2026-04-21 13:07 | 39.10723 | 117.33360 | 25329 ft | 507 kts | 91° |
| 2026-04-21 13:08 | 39.10587 | 117.37956 | 25599 ft | 514 kts | 92° |
| 2026-04-21 13:08 | 39.10416 | 117.42480 | 26010 ft | 517 kts | 93° |
| 2026-04-21 13:08 | 39.10209 | 117.47154 | 26375 ft | 521 kts | 94° |
| 2026-04-21 13:08 | 39.09980 | 117.51775 | 26695 ft | 525 kts | 94° |
| 2026-04-21 13:09 | 39.09734 | 117.56454 | 26921 ft | 532 kts | 94° |
| 2026-04-21 13:09 | 39.09470 | 117.61255 | 27258 ft | 535 kts | 95° |
| 2026-04-21 13:09 | 39.09203 | 117.66017 | 27605 ft | 537 kts | 95° |
| 2026-04-21 13:09 | 39.08932 | 117.70773 | 28013 ft | 538 kts | 95° |
| 2026-04-21 13:10 | 39.08660 | 117.75536 | 28490 ft | 536 kts | 96° |
| 2026-04-21 13:10 | 39.08382 | 117.80353 | 28885 ft | 537 kts | 95° |
| 2026-04-21 13:10 | 39.08107 | 117.85098 | 29152 ft | 540 kts | 95° |
| 2026-04-21 13:10 | 39.07828 | 117.89947 | 29438 ft | 543 kts | 96° |
| 2026-04-21 13:11 | 39.07549 | 117.94786 | 29734 ft | 544 kts | 96° |
| 2026-04-21 13:11 | 39.07269 | 117.99585 | 29958 ft | 548 kts | 95° |
| 2026-04-21 13:11 | 39.06911 | 118.04501 | 30271 ft | 548 kts | 99° |
| 2026-04-21 13:11 | 39.06364 | 118.09336 | 30678 ft | 546 kts | 102° |
| 2026-04-21 13:12 | 39.05677 | 118.14104 | 31138 ft | 542 kts | 104° |
| 2026-04-21 13:12 | 39.04914 | 118.18811 | 31620 ft | 538 kts | 105° |
| 2026-04-21 13:12 | 39.04118 | 118.23476 | 31961 ft | 538 kts | 106° |
| 2026-04-21 13:12 | 39.03300 | 118.28187 | 32316 ft | 537 kts | 106° |
| 2026-04-21 13:13 | 39.02499 | 118.32813 | 32597 ft | 538 kts | 106° |
| 2026-04-21 13:13 | 39.01687 | 118.37560 | 32913 ft | 537 kts | 106° |
| 2026-04-21 13:13 | 39.00892 | 118.42275 | 33132 ft | 539 kts | 106° |
| 2026-04-21 13:13 | 39.00112 | 118.46969 | 33441 ft | 538 kts | 106° |
| 2026-04-21 13:14 | 38.99322 | 118.51762 | 33656 ft | 540 kts | 106° |
| 2026-04-21 13:14 | 38.98544 | 118.56520 | 33865 ft | 541 kts | 107° |
| 2026-04-21 13:14 | 38.97762 | 118.61311 | 34121 ft | 542 kts | 107° |
| 2026-04-21 13:14 | 38.96991 | 118.66052 | 34391 ft | 541 kts | 107° |
| 2026-04-21 13:15 | 38.96222 | 118.70789 | 34600 ft | 542 kts | 107° |
| 2026-04-21 13:15 | 38.95450 | 118.75522 | 34753 ft | 543 kts | 107° |
| 2026-04-21 13:15 | 38.94678 | 118.80238 | 34883 ft | 545 kts | 107° |
| 2026-04-21 13:15 | 38.93895 | 118.84994 | 35058 ft | 545 kts | 107° |
| 2026-04-21 13:16 | 38.92348 | 118.94397 | 35087 ft | 532 kts | 108° |
| 2026-04-21 13:16 | 38.90802 | 119.03706 | 35094 ft | 533 kts | 108° |
| 2026-04-21 13:17 | 38.89251 | 119.13008 | 35087 ft | 533 kts | 108° |
| 2026-04-21 13:17 | 38.87681 | 119.22331 | 35080 ft | 532 kts | 108° |
| 2026-04-21 13:18 | 38.86120 | 119.31579 | 35090 ft | 532 kts | 108° |
| 2026-04-21 13:18 | 38.84537 | 119.40891 | 35099 ft | 535 kts | 107° |
| 2026-04-21 13:19 | 38.82948 | 119.50172 | 35091 ft | 535 kts | 108° |
| 2026-04-21 13:19 | 38.81359 | 119.59457 | 35091 ft | 533 kts | 108° |
| 2026-04-21 13:20 | 38.79754 | 119.68756 | 35095 ft | 536 kts | 108° |
| 2026-04-21 13:20 | 38.77760 | 119.77902 | 35086 ft | 525 kts | 119° |
| 2026-04-21 13:21 | 38.76155 | 119.82024 | 35093 ft | 511 kts | 130° |
| 2026-04-21 13:21 | 38.74106 | 119.85667 | 35093 ft | 501 kts | 140° |
| 2026-04-21 13:21 | 38.69308 | 119.91891 | 35090 ft | 487 kts | 148° |
| 2026-04-21 13:22 | 38.66924 | 119.95009 | 35091 ft | 499 kts | 139° |
| 2026-04-21 13:22 | 38.64976 | 119.98749 | 35101 ft | 517 kts | 125° |
| 2026-04-21 13:22 | 38.62180 | 120.07365 | 35085 ft | 535 kts | 110° |
| 2026-04-21 13:23 | 38.61568 | 120.12024 | 35105 ft | 543 kts | 98° |
| 2026-04-21 13:23 | 38.61319 | 120.16845 | 35090 ft | 545 kts | 97° |
| 2026-04-21 13:23 | 38.60583 | 120.26402 | 35091 ft | 541 kts | 102° |
| 2026-04-21 13:24 | 38.59375 | 120.35810 | 35095 ft | 537 kts | 105° |
| 2026-04-21 13:24 | 38.57854 | 120.45290 | 35095 ft | 541 kts | 106° |
| 2026-04-21 13:25 | 38.56278 | 120.54597 | 35099 ft | 538 kts | 106° |
| 2026-04-21 13:25 | 38.54706 | 120.63973 | 35096 ft | 536 kts | 107° |
| 2026-04-21 13:26 | 38.53169 | 120.73303 | 35101 ft | 539 kts | 107° |
| 2026-04-21 13:26 | 38.51641 | 120.82643 | 35100 ft | 538 kts | 107° |
| 2026-04-21 13:27 | 38.50118 | 120.91953 | 35113 ft | 541 kts | 106° |
| 2026-04-21 13:27 | 38.48557 | 121.01423 | 35108 ft | 537 kts | 107° |
| 2026-04-21 13:28 | 38.47016 | 121.10736 | 35108 ft | 536 kts | 106° |
| 2026-04-21 13:28 | 38.45464 | 121.20091 | 35105 ft | 538 kts | 107° |
| 2026-04-21 13:29 | 38.43942 | 121.29412 | 35108 ft | 538 kts | 106° |
| 2026-04-21 13:29 | 38.42436 | 121.38769 | 35110 ft | 539 kts | 105° |
| 2026-04-21 13:30 | 38.40921 | 121.48171 | 35116 ft | 539 kts | 105° |
| 2026-04-21 13:30 | 38.39383 | 121.57552 | 35114 ft | 539 kts | 105° |
| 2026-04-21 13:31 | 38.37822 | 121.66891 | 35109 ft | 539 kts | 106° |
| 2026-04-21 13:31 | 38.36241 | 121.76268 | 35113 ft | 541 kts | 106° |
| 2026-04-21 13:32 | 38.34662 | 121.85604 | 35114 ft | 537 kts | 106° |
| 2026-04-21 13:32 | 38.33077 | 121.94909 | 35316 ft | 542 kts | 106° |
| 2026-04-21 13:33 | 38.32276 | 121.99584 | 35455 ft | 545 kts | 106° |
| 2026-04-21 13:33 | 38.31457 | 122.04360 | 35627 ft | 548 kts | 106° |
| 2026-04-21 13:33 | 38.30642 | 122.09109 | 35796 ft | 549 kts | 106° |
| 2026-04-21 13:33 | 38.29826 | 122.13860 | 36020 ft | 550 kts | 105° |
| 2026-04-21 13:34 | 38.28999 | 122.18679 | 36267 ft | 550 kts | 106° |
| 2026-04-21 13:34 | 38.28187 | 122.23391 | 36464 ft | 550 kts | 106° |
| 2026-04-21 13:34 | 38.27381 | 122.28130 | 36675 ft | 551 kts | 104° |
| 2026-04-21 13:34 | 38.26623 | 122.32946 | 36835 ft | 552 kts | 104° |
| 2026-04-21 13:35 | 38.25867 | 122.37741 | 37070 ft | 551 kts | 106° |
| 2026-04-21 13:35 | 38.24896 | 122.42392 | 37107 ft | 541 kts | 115° |
| 2026-04-21 13:35 | 38.23308 | 122.46635 | 37118 ft | 522 kts | 130° |
| 2026-04-21 13:35 | 38.21193 | 122.50271 | 37127 ft | 510 kts | 140° |
| 2026-04-21 13:36 | 38.16373 | 122.56808 | 37124 ft | 506 kts | 143° |
| 2026-04-21 13:36 | 38.11391 | 122.63106 | 37132 ft | 504 kts | 144° |
| 2026-04-21 13:37 | 38.06411 | 122.69369 | 37128 ft | 509 kts | 144° |
| 2026-04-21 13:37 | 38.01386 | 122.75794 | 37127 ft | 511 kts | 144° |
| 2026-04-21 13:38 | 37.96363 | 122.82277 | 37128 ft | 512 kts | 144° |
| 2026-04-21 13:38 | 37.91377 | 122.88739 | 37130 ft | 513 kts | 143° |
| 2026-04-21 13:39 | 37.86411 | 122.95165 | 37137 ft | 510 kts | 143° |
| 2026-04-21 13:39 | 37.81441 | 123.01579 | 37139 ft | 505 kts | 144° |
| 2026-04-21 13:40 | 37.76479 | 123.07951 | 37139 ft | 508 kts | 143° |
| 2026-04-21 13:40 | 37.71495 | 123.14334 | 37136 ft | 512 kts | 143° |
| 2026-04-21 13:41 | 37.66522 | 123.20715 | 37144 ft | 506 kts | 143° |
| 2026-04-21 13:41 | 37.61556 | 123.27062 | 37143 ft | 509 kts | 143° |
| 2026-04-21 13:42 | 37.56605 | 123.33489 | 37139 ft | 512 kts | 140° |
| 2026-04-21 13:42 | 37.52079 | 123.40466 | 37147 ft | 516 kts | 135° |
| 2026-04-21 13:43 | 37.47725 | 123.47903 | 37146 ft | 521 kts | 133° |
| 2026-04-21 13:43 | 37.43494 | 123.55221 | 37155 ft | 517 kts | 133° |
| 2026-04-21 13:44 | 37.39187 | 123.62551 | 37151 ft | 519 kts | 134° |
| 2026-04-21 13:44 | 37.34825 | 123.69867 | 37160 ft | 520 kts | 134° |
| 2026-04-21 13:45 | 37.30469 | 123.77123 | 37154 ft | 519 kts | 134° |
| 2026-04-21 13:45 | 37.26079 | 123.84401 | 37167 ft | 518 kts | 135° |
| 2026-04-21 13:46 | 37.21756 | 123.91637 | 37162 ft | 522 kts | 131° |
| 2026-04-21 13:46 | 37.18539 | 123.99837 | 37039 ft | 536 kts | 110° |
| 2026-04-21 13:47 | 37.17171 | 124.09007 | 37065 ft | 542 kts | 96° |
| 2026-04-21 13:47 | 37.17004 | 124.18520 | 37063 ft | 542 kts | 87° |
| 2026-04-21 13:48 | 37.17411 | 124.27917 | 37066 ft | 542 kts | 86° |
| 2026-04-21 13:48 | 37.17844 | 124.37408 | 37068 ft | 544 kts | 86° |
| 2026-04-21 13:49 | 37.18161 | 124.46821 | 37077 ft | 543 kts | 87° |
| 2026-04-21 13:49 | 37.18403 | 124.56306 | 37072 ft | 543 kts | 88° |
| 2026-04-21 13:50 | 37.18604 | 124.65704 | 37078 ft | 542 kts | 89° |
| 2026-04-21 13:50 | 37.18794 | 124.75172 | 37078 ft | 541 kts | 89° |
| 2026-04-21 13:51 | 37.18984 | 124.84592 | 37079 ft | 542 kts | 88° |
| 2026-04-21 13:51 | 37.19166 | 124.94080 | 37092 ft | 542 kts | 89° |
| 2026-04-21 13:52 | 37.19339 | 125.03417 | 37103 ft | 541 kts | 88° |
| 2026-04-21 13:52 | 37.19513 | 125.12873 | 37087 ft | 542 kts | 89° |
| 2026-04-21 13:53 | 37.19678 | 125.22286 | 37094 ft | 543 kts | 89° |
| 2026-04-21 13:53 | 37.19838 | 125.31781 | 37091 ft | 543 kts | 88° |
| 2026-04-21 13:54 | 37.19988 | 125.41235 | 37103 ft | 543 kts | 89° |
| 2026-04-21 13:54 | 37.20128 | 125.50755 | 37093 ft | 544 kts | 88° |
| 2026-04-21 13:55 | 37.20258 | 125.60169 | 37097 ft | 544 kts | 88° |
| 2026-04-21 13:55 | 37.20381 | 125.69641 | 37099 ft | 544 kts | 89° |
| 2026-04-21 13:56 | 37.20499 | 125.79168 | 37092 ft | 545 kts | 89° |
| 2026-04-21 13:56 | 37.20605 | 125.88718 | 37097 ft | 546 kts | 88° |
| 2026-04-21 13:57 | 37.20712 | 125.98197 | 37102 ft | 544 kts | 89° |
| 2026-04-21 13:57 | 37.20811 | 126.07766 | 37110 ft | 547 kts | 89° |
| 2026-04-21 13:58 | 37.20906 | 126.17253 | 37106 ft | 546 kts | 88° |
| 2026-04-21 13:58 | 37.20989 | 126.26778 | 37095 ft | 546 kts | 89° |
| 2026-04-21 13:59 | 37.21065 | 126.36300 | 37114 ft | 545 kts | 88° |
| 2026-04-21 13:59 | 37.21133 | 126.45821 | 37114 ft | 547 kts | 88° |
| 2026-04-21 14:00 | 37.21189 | 126.55364 | 37114 ft | 545 kts | 88° |
| 2026-04-21 14:00 | 37.20425 | 126.64780 | 37113 ft | 543 kts | 109° |
| 2026-04-21 14:01 | 37.19014 | 126.69130 | 37112 ft | 533 kts | 126° |
| 2026-04-21 14:01 | 37.16957 | 126.72896 | 37105 ft | 520 kts | 138° |
| 2026-04-21 14:01 | 37.11740 | 126.79024 | 37102 ft | 500 kts | 155° |
| 2026-04-21 14:02 | 37.08770 | 126.81165 | 37108 ft | 480 kts | 169° |
| 2026-04-21 14:02 | 37.05646 | 126.82430 | 37131 ft | 459 kts | 180° |
| 2026-04-21 14:02 | 37.02585 | 126.82989 | 37128 ft | 445 kts | 188° |
| 2026-04-21 14:03 | 36.96438 | 126.83175 | 37122 ft | 437 kts | 193° |
| 2026-04-21 14:03 | 36.90348 | 126.83043 | 37120 ft | 432 kts | 194° |
| 2026-04-21 14:04 | 36.84306 | 126.82844 | 37114 ft | 435 kts | 194° |
| 2026-04-21 14:04 | 36.78270 | 126.82651 | 37112 ft | 437 kts | 194° |
| 2026-04-21 14:05 | 36.72127 | 126.82484 | 37118 ft | 437 kts | 194° |
| 2026-04-21 14:05 | 36.66047 | 126.82558 | 37124 ft | 440 kts | 191° |
| 2026-04-21 14:06 | 36.59904 | 126.82848 | 37124 ft | 443 kts | 190° |
| 2026-04-21 14:06 | 36.53735 | 126.83150 | 37114 ft | 441 kts | 190° |
| 2026-04-21 14:07 | 36.47557 | 126.83423 | 37117 ft | 443 kts | 190° |
| 2026-04-21 14:07 | 36.41367 | 126.83673 | 37123 ft | 442 kts | 190° |
| 2026-04-21 14:08 | 36.35310 | 126.83645 | 37125 ft | 432 kts | 195° |
| 2026-04-21 14:08 | 36.29286 | 126.83004 | 37121 ft | 429 kts | 198° |
| 2026-04-21 14:09 | 36.23330 | 126.82242 | 37123 ft | 431 kts | 198° |
| 2026-04-21 14:09 | 36.17397 | 126.81521 | 37121 ft | 432 kts | 197° |
| 2026-04-21 14:10 | 36.11383 | 126.80833 | 37129 ft | 433 kts | 197° |
| 2026-04-21 14:10 | 36.05388 | 126.80172 | 37129 ft | 433 kts | 197° |
| 2026-04-21 14:11 | 35.99376 | 126.79519 | 37131 ft | 430 kts | 197° |
| 2026-04-21 14:11 | 35.93385 | 126.78873 | 37126 ft | 431 kts | 196° |
| 2026-04-21 14:12 | 35.87376 | 126.78217 | 37124 ft | 434 kts | 196° |
| 2026-04-21 14:12 | 35.81356 | 126.77564 | 37129 ft | 433 kts | 196° |
| 2026-04-21 14:13 | 35.75340 | 126.76915 | 37129 ft | 432 kts | 196° |
| 2026-04-21 14:13 | 35.69341 | 126.76270 | 37126 ft | 432 kts | 196° |
| 2026-04-21 14:14 | 35.63341 | 126.75624 | 37119 ft | 432 kts | 196° |
| 2026-04-21 14:14 | 35.57347 | 126.74970 | 37114 ft | 435 kts | 196° |
| 2026-04-21 14:15 | 35.51366 | 126.74329 | 37119 ft | 432 kts | 196° |
| 2026-04-21 14:15 | 35.45345 | 126.73681 | 37110 ft | 435 kts | 195° |
| 2026-04-21 14:16 | 35.39287 | 126.73035 | 37111 ft | 432 kts | 195° |
| 2026-04-21 14:16 | 35.33300 | 126.72396 | 37111 ft | 435 kts | 195° |
| 2026-04-21 14:17 | 35.27251 | 126.71748 | 37106 ft | 434 kts | 195° |
| 2026-04-21 14:17 | 35.21236 | 126.71108 | 37106 ft | 434 kts | 195° |
| 2026-04-21 14:18 | 35.15171 | 126.70458 | 37107 ft | 438 kts | 195° |
| 2026-04-21 14:18 | 35.09103 | 126.69822 | 37110 ft | 432 kts | 195° |
| 2026-04-21 14:19 | 35.03102 | 126.69185 | 37106 ft | 433 kts | 195° |
| 2026-04-21 14:19 | 34.97031 | 126.68540 | 37112 ft | 435 kts | 195° |
| 2026-04-21 14:20 | 34.90952 | 126.67895 | 37109 ft | 435 kts | 195° |
| 2026-04-21 14:20 | 34.84919 | 126.67259 | 37110 ft | 435 kts | 195° |
| 2026-04-21 14:21 | 34.78925 | 126.66627 | 37104 ft | 434 kts | 195° |
| 2026-04-21 14:21 | 34.72909 | 126.65991 | 37104 ft | 435 kts | 195° |
| 2026-04-21 14:22 | 34.66866 | 126.65354 | 37104 ft | 436 kts | 194° |
| 2026-04-21 14:22 | 34.60840 | 126.64722 | 37101 ft | 434 kts | 194° |
| 2026-04-21 14:23 | 34.54838 | 126.64096 | 37102 ft | 434 kts | 194° |
| 2026-04-21 14:23 | 34.48817 | 126.63460 | 37099 ft | 436 kts | 194° |
| 2026-04-21 14:24 | 34.42798 | 126.62831 | 37099 ft | 434 kts | 194° |
| 2026-04-21 14:24 | 34.36744 | 126.62202 | 37100 ft | 436 kts | 194° |
| 2026-04-21 14:25 | 34.30700 | 126.61569 | 37098 ft | 437 kts | 194° |
| 2026-04-21 14:25 | 34.24634 | 126.60935 | 37095 ft | 438 kts | 194° |
| 2026-04-21 14:26 | 34.18599 | 126.60310 | 37091 ft | 434 kts | 194° |
| 2026-04-21 14:26 | 34.12575 | 126.59684 | 37098 ft | 436 kts | 194° |
| 2026-04-21 14:27 | 34.06551 | 126.59054 | 37094 ft | 437 kts | 193° |
| 2026-04-21 14:27 | 34.00484 | 126.58421 | 37089 ft | 437 kts | 193° |
| 2026-04-21 14:28 | 33.94402 | 126.57792 | 37090 ft | 437 kts | 193° |
| 2026-04-21 14:28 | 33.88304 | 126.57159 | 37084 ft | 441 kts | 193° |
| 2026-04-21 14:29 | 33.82187 | 126.56937 | 37077 ft | 444 kts | 186° |
| 2026-04-21 14:29 | 33.75988 | 126.57536 | 37078 ft | 448 kts | 182° |
| 2026-04-21 14:30 | 33.69783 | 126.58370 | 37077 ft | 450 kts | 181° |
| 2026-04-21 14:30 | 33.63535 | 126.59219 | 37079 ft | 451 kts | 181° |
| 2026-04-21 14:31 | 33.57339 | 126.60034 | 37081 ft | 448 kts | 181° |
| 2026-04-21 14:31 | 33.51132 | 126.60821 | 37079 ft | 450 kts | 181° |
| 2026-04-21 14:32 | 33.44870 | 126.61606 | 37079 ft | 449 kts | 181° |
| 2026-04-21 14:32 | 33.38651 | 126.62566 | 37078 ft | 455 kts | 176° |
| 2026-04-21 14:33 | 33.32463 | 126.64497 | 37073 ft | 460 kts | 169° |
| 2026-04-21 14:33 | 33.26371 | 126.66885 | 37073 ft | 461 kts | 168° |
| 2026-04-21 14:34 | 33.20311 | 126.69331 | 37067 ft | 461 kts | 168° |
| 2026-04-21 14:34 | 33.14185 | 126.71767 | 37066 ft | 462 kts | 168° |
| 2026-04-21 14:35 | 33.08084 | 126.74157 | 37067 ft | 459 kts | 168° |
| 2026-04-21 14:35 | 33.01982 | 126.76524 | 37064 ft | 462 kts | 168° |
| 2026-04-21 14:36 | 32.95878 | 126.78885 | 37068 ft | 461 kts | 168° |
| 2026-04-21 14:36 | 32.89784 | 126.81245 | 37068 ft | 462 kts | 168° |
| 2026-04-21 14:37 | 32.83669 | 126.83612 | 37061 ft | 462 kts | 168° |
| 2026-04-21 14:37 | 32.77529 | 126.85982 | 37063 ft | 464 kts | 168° |
| 2026-04-21 14:38 | 32.71382 | 126.88355 | 37061 ft | 460 kts | 168° |
| 2026-04-21 14:38 | 32.65291 | 126.90701 | 37062 ft | 461 kts | 168° |
| 2026-04-21 14:39 | 32.59113 | 126.93072 | 37060 ft | 465 kts | 168° |
| 2026-04-21 14:39 | 32.52972 | 126.95428 | 37062 ft | 464 kts | 168° |
| 2026-04-21 14:40 | 32.46825 | 126.97731 | 37059 ft | 462 kts | 169° |
| 2026-04-21 14:40 | 32.40650 | 126.99818 | 37385 ft | 461 kts | 171° |
| 2026-04-21 14:40 | 32.37539 | 127.00841 | 37642 ft | 459 kts | 171° |
| 2026-04-21 14:41 | 32.34491 | 127.01842 | 37886 ft | 458 kts | 171° |
| 2026-04-21 14:41 | 32.31413 | 127.02854 | 38062 ft | 458 kts | 171° |
| 2026-04-21 14:41 | 32.28348 | 127.03863 | 38054 ft | 461 kts | 171° |
| 2026-04-21 14:42 | 32.22120 | 127.05928 | 38053 ft | 467 kts | 170° |
| 2026-04-21 14:42 | 32.15817 | 127.08037 | 38054 ft | 471 kts | 170° |
| 2026-04-21 14:43 | 32.09523 | 127.10153 | 38051 ft | 470 kts | 169° |
| 2026-04-21 14:43 | 32.03249 | 127.12260 | 38048 ft | 470 kts | 170° |
| 2026-04-21 14:44 | 31.96920 | 127.14379 | 38047 ft | 471 kts | 170° |
| 2026-04-21 14:44 | 31.90600 | 127.16492 | 38049 ft | 472 kts | 170° |
| 2026-04-21 14:45 | 31.84296 | 127.18595 | 38045 ft | 471 kts | 170° |
| 2026-04-21 14:45 | 31.77959 | 127.20706 | 38043 ft | 471 kts | 170° |
| 2026-04-21 14:46 | 31.71630 | 127.22810 | 38042 ft | 474 kts | 170° |
| 2026-04-21 14:46 | 31.65270 | 127.24919 | 38049 ft | 475 kts | 170° |
| 2026-04-21 14:47 | 31.58892 | 127.27034 | 38047 ft | 473 kts | 170° |
| 2026-04-21 14:47 | 31.52519 | 127.29144 | 38049 ft | 475 kts | 170° |
| 2026-04-21 14:48 | 31.46217 | 127.31232 | 38045 ft | 471 kts | 170° |
| 2026-04-21 14:48 | 31.39866 | 127.33330 | 38045 ft | 473 kts | 170° |
| 2026-04-21 14:49 | 31.33546 | 127.35412 | 38046 ft | 476 kts | 170° |
| 2026-04-21 14:49 | 31.27161 | 127.37515 | 38044 ft | 473 kts | 170° |
| 2026-04-21 14:50 | 31.20821 | 127.39610 | 38045 ft | 477 kts | 170° |
| 2026-04-21 14:50 | 31.14402 | 127.41746 | 38039 ft | 474 kts | 169° |
| 2026-04-21 14:51 | 31.08050 | 127.43862 | 38040 ft | 476 kts | 169° |
| 2026-04-21 14:51 | 31.01663 | 127.45983 | 38041 ft | 474 kts | 169° |
| 2026-04-21 14:52 | 30.95332 | 127.48084 | 38033 ft | 474 kts | 169° |
| 2026-04-21 14:52 | 30.88972 | 127.50187 | 38036 ft | 474 kts | 169° |
| 2026-04-21 14:53 | 30.82620 | 127.52284 | 38035 ft | 474 kts | 169° |
| 2026-04-21 14:53 | 30.76244 | 127.54385 | 38031 ft | 475 kts | 169° |
| 2026-04-21 14:54 | 30.69909 | 127.56471 | 38031 ft | 476 kts | 169° |
| 2026-04-21 14:54 | 30.63506 | 127.58578 | 38034 ft | 476 kts | 169° |
| 2026-04-21 14:55 | 30.57158 | 127.60664 | 38036 ft | 478 kts | 169° |
| 2026-04-21 14:55 | 30.50784 | 127.62755 | 38033 ft | 477 kts | 169° |
| 2026-04-21 14:56 | 30.44369 | 127.64858 | 38027 ft | 476 kts | 169° |
| 2026-04-21 14:56 | 30.38005 | 127.66945 | 38032 ft | 474 kts | 171° |
| 2026-04-21 14:57 | 30.31616 | 127.69031 | 38034 ft | 478 kts | 170° |
| 2026-04-21 14:57 | 30.25247 | 127.71107 | 38029 ft | 478 kts | 170° |
| 2026-04-21 14:58 | 30.18819 | 127.73200 | 38031 ft | 480 kts | 170° |
| 2026-04-21 14:58 | 30.12378 | 127.75298 | 38031 ft | 480 kts | 171° |
| 2026-04-21 14:59 | 30.05971 | 127.77380 | 38034 ft | 481 kts | 171° |
| 2026-04-21 14:59 | 29.99520 | 127.79475 | 38025 ft | 481 kts | 171° |
| 2026-04-21 15:00 | 29.93091 | 127.81561 | 38028 ft | 479 kts | 170° |
| 2026-04-21 15:00 | 29.86682 | 127.83636 | 38026 ft | 478 kts | 170° |
| 2026-04-21 15:01 | 29.80295 | 127.85886 | 38023 ft | 481 kts | 167° |
| 2026-04-21 15:01 | 29.73932 | 127.88349 | 38029 ft | 481 kts | 167° |
| 2026-04-21 15:02 | 29.67555 | 127.90839 | 38020 ft | 482 kts | 167° |
| 2026-04-21 15:02 | 29.61157 | 127.93310 | 38017 ft | 479 kts | 167° |
| 2026-04-21 15:03 | 29.54841 | 127.95723 | 38030 ft | 480 kts | 168° |
| 2026-04-21 15:03 | 29.48491 | 127.98129 | 38026 ft | 479 kts | 168° |
| 2026-04-21 15:04 | 29.42121 | 128.00537 | 38024 ft | 478 kts | 168° |
| 2026-04-21 15:04 | 29.35838 | 128.02908 | 38029 ft | 478 kts | 168° |
| 2026-04-21 15:05 | 29.29521 | 128.05289 | 38023 ft | 475 kts | 168° |
| 2026-04-21 15:05 | 29.20121 | 128.08824 | 38030 ft | 476 kts | 168° |
| 2026-04-21 15:06 | 29.13808 | 128.11195 | 38028 ft | 474 kts | 168° |
| 2026-04-21 15:06 | 29.07563 | 128.13535 | 38027 ft | 473 kts | 168° |
| 2026-04-21 15:07 | 29.01199 | 128.15167 | 38026 ft | 461 kts | 183° |
| 2026-04-21 15:07 | 28.94887 | 128.14908 | 38029 ft | 452 kts | 193° |
| 2026-04-21 15:08 | 28.88631 | 128.14050 | 38029 ft | 447 kts | 194° |
| 2026-04-21 15:08 | 28.82479 | 128.13138 | 38019 ft | 450 kts | 194° |
| 2026-04-21 15:09 | 28.76206 | 128.12253 | 38008 ft | 449 kts | 194° |
| 2026-04-21 15:09 | 28.70029 | 128.11430 | 38010 ft | 449 kts | 193° |
| 2026-04-21 15:10 | 28.63811 | 128.10622 | 38009 ft | 450 kts | 193° |
| 2026-04-21 15:10 | 28.57535 | 128.09821 | 38008 ft | 449 kts | 193° |
| 2026-04-21 15:11 | 28.51351 | 128.09038 | 38008 ft | 450 kts | 193° |
| 2026-04-21 15:11 | 28.45088 | 128.08243 | 38009 ft | 452 kts | 193° |
| 2026-04-21 15:12 | 28.38835 | 128.07452 | 38008 ft | 451 kts | 193° |
| 2026-04-21 15:12 | 28.32556 | 128.06661 | 38009 ft | 451 kts | 192° |
| 2026-04-21 15:13 | 28.29429 | 128.06265 | 37901 ft | 452 kts | 193° |
| 2026-04-21 15:13 | 28.26323 | 128.05872 | 37606 ft | 452 kts | 192° |
| 2026-04-21 15:13 | 28.23203 | 128.05481 | 37311 ft | 449 kts | 193° |
| 2026-04-21 15:13 | 28.20066 | 128.05089 | 37018 ft | 449 kts | 193° |
| 2026-04-21 15:14 | 28.16983 | 128.04701 | 36613 ft | 448 kts | 193° |
| 2026-04-21 15:14 | 28.13873 | 128.04311 | 36009 ft | 446 kts | 193° |
| 2026-04-21 15:14 | 28.10800 | 128.03925 | 35347 ft | 445 kts | 193° |
| 2026-04-21 15:14 | 28.07686 | 128.03534 | 34611 ft | 445 kts | 193° |
| 2026-04-21 15:15 | 28.04610 | 128.03146 | 33849 ft | 446 kts | 193° |
| 2026-04-21 15:15 | 28.01543 | 128.02760 | 33089 ft | 447 kts | 193° |
| 2026-04-21 15:15 | 27.98436 | 128.02368 | 32468 ft | 447 kts | 193° |
| 2026-04-21 15:15 | 27.95313 | 128.01975 | 31902 ft | 450 kts | 192° |
| 2026-04-21 15:16 | 27.92218 | 128.01584 | 31304 ft | 448 kts | 192° |
| 2026-04-21 15:16 | 27.89128 | 128.01198 | 30697 ft | 446 kts | 191° |
| 2026-04-21 15:16 | 27.86033 | 128.00813 | 30091 ft | 443 kts | 191° |
| 2026-04-21 15:16 | 27.82969 | 128.00432 | 29483 ft | 441 kts | 191° |
| 2026-04-21 15:17 | 27.79942 | 128.00055 | 28887 ft | 443 kts | 191° |
| 2026-04-21 15:17 | 27.76868 | 127.99669 | 28279 ft | 448 kts | 191° |
| 2026-04-21 15:17 | 27.73776 | 127.99282 | 27661 ft | 447 kts | 191° |
| 2026-04-21 15:17 | 27.70688 | 127.98898 | 27033 ft | 444 kts | 191° |
| 2026-04-21 15:18 | 27.67604 | 127.98516 | 26411 ft | 441 kts | 191° |
| 2026-04-21 15:18 | 27.64598 | 127.98144 | 25800 ft | 438 kts | 191° |
| 2026-04-21 15:18 | 27.61565 | 127.97768 | 25181 ft | 435 kts | 191° |
| 2026-04-21 15:18 | 27.58573 | 127.97398 | 24567 ft | 432 kts | 191° |
| 2026-04-21 15:19 | 27.55601 | 127.97028 | 23955 ft | 429 kts | 191° |
| 2026-04-21 15:19 | 27.52651 | 127.96661 | 23357 ft | 427 kts | 191° |
| 2026-04-21 15:19 | 27.49667 | 127.96289 | 22744 ft | 429 kts | 191° |
| 2026-04-21 15:19 | 27.46720 | 127.95921 | 22136 ft | 427 kts | 191° |
| 2026-04-21 15:20 | 27.43764 | 127.95554 | 21521 ft | 424 kts | 191° |
| 2026-04-21 15:20 | 27.40828 | 127.95189 | 20907 ft | 421 kts | 190° |
| 2026-04-21 15:20 | 27.37913 | 127.94828 | 20299 ft | 418 kts | 190° |
| 2026-04-21 15:20 | 27.35046 | 127.94473 | 19698 ft | 414 kts | 190° |
| 2026-04-21 15:21 | 27.32210 | 127.94122 | 19095 ft | 411 kts | 190° |
| 2026-04-21 15:21 | 27.29363 | 127.93767 | 18494 ft | 408 kts | 189° |
| 2026-04-21 15:21 | 27.26557 | 127.93420 | 17905 ft | 404 kts | 189° |
| 2026-04-21 15:21 | 27.23754 | 127.93072 | 17313 ft | 401 kts | 189° |
| 2026-04-21 15:22 | 27.21022 | 127.92736 | 16745 ft | 398 kts | 189° |
| 2026-04-21 15:22 | 27.18263 | 127.92395 | 16161 ft | 394 kts | 189° |
| 2026-04-21 15:22 | 27.15565 | 127.92062 | 15589 ft | 391 kts | 189° |
| 2026-04-21 15:22 | 27.12872 | 127.91730 | 15018 ft | 388 kts | 189° |
| 2026-04-21 15:23 | 27.10202 | 127.91401 | 14456 ft | 384 kts | 189° |
| 2026-04-21 15:23 | 27.07550 | 127.91074 | 13898 ft | 381 kts | 189° |
| 2026-04-21 15:23 | 27.04909 | 127.90749 | 13438 ft | 376 kts | 189° |
| 2026-04-21 15:23 | 27.02313 | 127.90395 | 12975 ft | 377 kts | 192° |
| 2026-04-21 15:24 | 26.99786 | 127.89675 | 12440 ft | 372 kts | 202° |
| 2026-04-21 15:24 | 26.97437 | 127.88546 | 11885 ft | 367 kts | 209° |
| 2026-04-21 15:24 | 26.95180 | 127.87226 | 11309 ft | 363 kts | 211° |
| 2026-04-21 15:24 | 26.92968 | 127.85858 | 10761 ft | 360 kts | 211° |
| 2026-04-21 15:25 | 26.90778 | 127.84514 | 10338 ft | 356 kts | 211° |
| 2026-04-21 15:25 | 26.88579 | 127.83198 | 10180 ft | 356 kts | 210° |
| 2026-04-21 15:25 | 26.86374 | 127.81907 | 9998 ft | 361 kts | 210° |
| 2026-04-21 15:25 | 26.84119 | 127.80608 | 9547 ft | 360 kts | 210° |
| 2026-04-21 15:26 | 26.81893 | 127.79340 | 9080 ft | 356 kts | 209° |
| 2026-04-21 15:26 | 26.79688 | 127.78089 | 8632 ft | 354 kts | 208° |
| 2026-04-21 15:26 | 26.77510 | 127.76856 | 8187 ft | 352 kts | 208° |
| 2026-04-21 15:26 | 26.75341 | 127.75628 | 8075 ft | 336 kts | 208° |
| 2026-04-21 15:27 | 26.73329 | 127.74491 | 8127 ft | 316 kts | 208° |
| 2026-04-21 15:27 | 26.71395 | 127.73397 | 7825 ft | 309 kts | 208° |
| 2026-04-21 15:27 | 26.69529 | 127.72340 | 7669 ft | 287 kts | 208° |
| 2026-04-21 15:27 | 26.67817 | 127.71370 | 7491 ft | 274 kts | 208° |
| 2026-04-21 15:28 | 26.66118 | 127.70405 | 6910 ft | 274 kts | 207° |
| 2026-04-21 15:28 | 26.64406 | 127.69431 | 6382 ft | 273 kts | 207° |
| 2026-04-21 15:28 | 26.62720 | 127.68476 | 5902 ft | 270 kts | 207° |
| 2026-04-21 15:28 | 26.61068 | 127.67539 | 5401 ft | 268 kts | 206° |
| 2026-04-21 15:29 | 26.59412 | 127.66599 | 4976 ft | 264 kts | 206° |
| 2026-04-21 15:29 | 26.57787 | 127.65678 | 4656 ft | 262 kts | 206° |
| 2026-04-21 15:29 | 26.56152 | 127.64752 | 4334 ft | 261 kts | 206° |
| 2026-04-21 15:29 | 26.54537 | 127.63839 | 4019 ft | 260 kts | 206° |
| 2026-04-21 15:30 | 26.52954 | 127.62945 | 3870 ft | 251 kts | 205° |
| 2026-04-21 15:30 | 26.51414 | 127.62074 | 3621 ft | 240 kts | 205° |
| 2026-04-21 15:30 | 26.49921 | 127.61351 | 3402 ft | 230 kts | 194° |
| 2026-04-21 15:30 | 26.48347 | 127.61201 | 2900 ft | 230 kts | 170° |
| 2026-04-21 15:31 | 26.46801 | 127.61550 | 2608 ft | 223 kts | 165° |
| 2026-04-21 15:31 | 26.45308 | 127.61906 | 2549 ft | 218 kts | 167° |
| 2026-04-21 15:31 | 26.43786 | 127.62212 | 2286 ft | 222 kts | 169° |
| 2026-04-21 15:31 | 26.42274 | 127.62483 | 2062 ft | 219 kts | 169° |
| 2026-04-21 15:32 | 26.40757 | 127.62746 | 1827 ft | 218 kts | 169° |
| 2026-04-21 15:32 | 26.39261 | 127.63010 | 1592 ft | 217 kts | 169° |
| 2026-04-21 15:32 | 26.37790 | 127.63270 | 1380 ft | 213 kts | 169° |
| 2026-04-21 15:32 | 26.36361 | 127.63522 | 1266 ft | 201 kts | 169° |
| 2026-04-21 15:33 | 26.35016 | 127.63758 | 1202 ft | 188 kts | 169° |
| 2026-04-21 15:33 | 26.33760 | 127.63939 | 1166 ft | 176 kts | 174° |
| 2026-04-21 15:33 | 26.32531 | 127.64002 | 1175 ft | 176 kts | 177° |
| 2026-04-21 15:33 | 26.31297 | 127.64037 | 1175 ft | 176 kts | 176° |
| 2026-04-21 15:34 | 26.30074 | 127.64088 | 1176 ft | 176 kts | 176° |
| 2026-04-21 15:34 | 26.28838 | 127.64147 | 1178 ft | 176 kts | 175° |
| 2026-04-21 15:34 | 26.27623 | 127.64204 | 1189 ft | 170 kts | 175° |
| 2026-04-21 15:34 | 26.26462 | 127.64257 | 1195 ft | 162 kts | 176° |
| 2026-04-21 15:35 | 26.25324 | 127.64314 | 906 ft | 162 kts | 175° |
| 2026-04-21 15:35 | 26.24227 | 127.64373 | 619 ft | 154 kts | 176° |
| 2026-04-21 15:35 | 26.23170 | 127.64419 | 421 ft | 152 kts | 176° |
| 2026-04-21 15:35 | 26.22101 | 127.64468 | 262 ft | 154 kts | 176° |
| 2026-04-21 15:36 | 26.21021 | 127.64520 | 83 ft | 156 kts | 176° |
| 2026-04-21 15:36 | 26.19980 | 127.64571 | 27 ft | 129 kts | 178° |
| 2026-04-21 15:36 | 26.19400 | 127.64604 | 32 ft | 40 kts | 168° |
| 2026-04-21 15:36 | 26.19220 | 127.64703 | 29 ft | 15 kts | 141° |
| 2026-04-21 15:37 | 26.19220 | 127.64796 | 29 ft | 13 kts | 33° |
| 2026-04-21 15:37 | 26.19309 | 127.64806 | 29 ft | 12 kts | 357° |
| 2026-04-21 15:37 | 26.19397 | 127.64802 | 28 ft | 12 kts | 358° |
| 2026-04-21 15:37 | 26.19486 | 127.64799 | 27 ft | 12 kts | 358° |
| 2026-04-21 15:38 | 26.19578 | 127.64796 | 25 ft | 13 kts | 357° |
| 2026-04-21 15:38 | 26.19680 | 127.64790 | 23 ft | 15 kts | 358° |
| 2026-04-21 15:38 | 26.19786 | 127.64785 | 22 ft | 15 kts | 356° |
| 2026-04-21 15:38 | 26.19896 | 127.64778 | 24 ft | 16 kts | 358° |
| 2026-04-21 15:39 | 26.20023 | 127.64778 | 27 ft | 19 kts | 2° |
| 2026-04-21 15:39 | 26.20167 | 127.64767 | 26 ft | 22 kts | 357° |
| 2026-04-21 15:39 | 26.20338 | 127.64759 | 21 ft | 25 kts | 355° |
| 2026-04-21 15:39 | 26.20520 | 127.64751 | 18 ft | 26 kts | 359° |
| 2026-04-21 15:40 | 26.20697 | 127.64741 | 17 ft | 25 kts | 358° |
| 2026-04-21 15:40 | 26.20838 | 127.64736 | 20 ft | 9 kts | 359° |
| 2026-04-21 15:40 | 26.20896 | 127.64760 | 20 ft | 9 kts | 50° |
| 2026-04-21 15:40 | 26.20914 | 127.64829 | 21 ft | 8 kts | 81° |
| 2026-04-21 15:41 | 26.20938 | 127.64880 | 22 ft | 6 kts | 52° |
| 2026-04-21 15:41 | 26.20950 | 127.64915 | 23 ft | 2 kts | 84° |
| 2026-04-21 15:41 | 26.20951 | 127.64925 | 24 ft | 4 kts | 85° |
| 2026-04-21 15:41 | 26.20952 | 127.64960 | 26 ft | 0 kts | 87° |
| 2026-04-21 15:42 | 26.20953 | 127.64964 | 27 ft | 0 kts | 88° |